Time;durP1;ratioP1;P1;durP2;ratioP2;P2;SDS_P1;SDS_P2;PMS_P1;PMS_P2;Temp;Humidity;BMP_temperature;BMP_pressure;BME280_temperature;BME280_humidity;BME280_pressure;Samples;Min_cycle;Max_cycle;Signal;HPM_P1;HPM_P2
2023/07/19 00:01:31;;;;;;;10.38;6.25;;;;;;;14.79;83.08;101373.31;6217925;23;20016;-68
2023/07/19 00:03:56;;;;;;;10.10;6.85;;;;;;;14.59;84.52;101364.91;6191768;23;20022;-68
2023/07/19 00:06:23;;;;;;;9.18;5.70;;;;;;;14.48;83.34;101366.00;6191927;23;20012;-68
2023/07/19 00:08:50;;;;;;;8.73;5.78;;;;;;;14.51;83.04;101367.69;6167718;23;20089;-68
2023/07/19 00:11:15;;;;;;;7.25;5.53;;;;;;;14.44;82.54;101364.31;6167704;23;20008;-68
2023/07/19 00:13:41;;;;;;;7.35;5.63;;;;;;;14.43;83.11;101359.94;6192116;23;20481;-68
2023/07/19 00:16:06;;;;;;;7.95;5.60;;;;;;;14.30;83.51;101353.19;6167372;23;20077;-68
2023/07/19 00:18:32;;;;;;;6.18;4.95;;;;;;;14.35;84.24;101348.66;6191325;23;20049;-68
2023/07/19 00:20:57;;;;;;;7.15;5.22;;;;;;;14.42;85.38;101352.91;6167447;23;20008;-68
2023/07/19 00:23:23;;;;;;;7.65;4.80;;;;;;;14.44;86.18;101353.78;6192445;23;20019;-68
2023/07/19 00:25:48;;;;;;;7.60;4.72;;;;;;;14.43;86.34;101359.09;6216760;23;20008;-68
2023/07/19 00:28:14;;;;;;;7.88;4.78;;;;;;;14.40;86.80;101348.59;6192260;23;20299;-68
2023/07/19 00:30:39;;;;;;;6.75;5.25;;;;;;;14.38;87.31;101351.28;6191263;23;20004;-68
2023/07/19 00:33:05;;;;;;;5.85;4.68;;;;;;;14.29;85.66;101339.09;6191776;23;20008;-68
2023/07/19 00:35:30;;;;;;;6.75;5.03;;;;;;;14.21;84.91;101336.63;6167132;23;20011;-68
2023/07/19 00:37:57;;;;;;;7.15;4.47;;;;;;;14.15;84.53;101344.66;6192333;23;20023;-68
2023/07/19 00:40:22;;;;;;;9.73;5.25;;;;;;;14.11;86.46;101335.06;6216005;23;20008;-68
2023/07/19 00:42:48;;;;;;;8.15;5.95;;;;;;;14.04;86.46;101326.41;6191963;23;20058;-68
2023/07/19 00:45:13;;;;;;;9.05;5.97;;;;;;;13.96;87.59;101319.53;6217083;23;20024;-68
2023/07/19 00:47:39;;;;;;;10.00;6.20;;;;;;;13.96;87.74;101316.91;6191780;23;20012;-68
2023/07/19 00:50:07;;;;;;;7.78;6.38;;;;;;;13.84;89.14;101318.00;6192084;23;20028;-68
2023/07/19 00:52:33;;;;;;;7.82;5.70;;;;;;;13.75;89.51;101311.13;6192167;23;20071;-68
2023/07/19 00:55:00;;;;;;;9.80;7.30;;;;;;;13.66;89.91;101311.25;6191284;23;20457;-68
2023/07/19 00:57:26;;;;;;;9.68;7.30;;;;;;;13.66;90.03;101304.25;6192364;23;20349;-68
2023/07/19 00:59:51;;;;;;;13.30;8.38;;;;;;;13.64;91.07;101300.75;6167079;23;20023;-68
2023/07/19 01:02:17;;;;;;;11.57;7.50;;;;;;;13.66;90.65;101300.72;6191287;23;20036;-68
2023/07/19 01:04:44;;;;;;;7.13;6.05;;;;;;;13.72;89.32;101307.66;6167432;23;20012;-68
2023/07/19 01:07:09;;;;;;;7.43;6.03;;;;;;;13.60;88.24;101299.06;6216974;23;20019;-68
2023/07/19 01:09:35;;;;;;;9.45;6.85;;;;;;;13.74;89.68;101297.97;6166365;23;20338;-68
2023/07/19 01:12:01;;;;;;;8.88;7.13;;;;;;;13.71;89.64;101296.25;6191764;23;20004;-68
2023/07/19 01:14:26;;;;;;;12.73;8.13;;;;;;;13.67;91.40;101294.56;6216145;23;20014;-68
2023/07/19 01:16:51;;;;;;;10.70;7.65;;;;;;;13.60;90.85;101303.47;6217534;23;20008;-68
2023/07/19 01:19:18;;;;;;;10.02;7.40;;;;;;;13.60;90.71;101300.84;6193484;23;20020;-68
2023/07/19 01:21:43;;;;;;;11.30;7.82;;;;;;;13.55;90.46;101303.56;6218958;23;20004;-68
2023/07/19 01:24:09;;;;;;;9.65;7.63;;;;;;;13.61;90.82;101305.22;6193285;22;20011;-68
2023/07/19 01:26:34;;;;;;;10.57;8.02;;;;;;;13.52;90.89;101295.72;6169026;23;20029;-68
2023/07/19 01:29:00;;;;;;;9.07;7.10;;;;;;;13.47;91.35;101298.41;6193794;23;20012;-68
2023/07/19 01:31:25;;;;;;;9.95;7.97;;;;;;;13.32;91.70;101288.13;6218502;23;20099;-68
2023/07/19 01:33:51;;;;;;;9.88;8.40;;;;;;;13.21;92.42;101280.38;6168303;23;20345;-68
2023/07/19 01:36:16;;;;;;;9.50;7.57;;;;;;;13.13;92.99;101276.97;6217792;23;20413;-68
2023/07/19 01:38:42;;;;;;;9.98;7.88;;;;;;;13.10;92.95;101291.09;6193092;23;20004;-68
2023/07/19 01:41:07;;;;;;;8.80;6.90;;;;;;;13.14;92.90;101279.59;6193854;23;20016;-68
2023/07/19 01:43:34;;;;;;;9.77;7.13;;;;;;;13.08;93.40;101274.44;6193989;23;20442;-68
2023/07/19 01:46:00;;;;;;;10.18;7.32;;;;;;;13.06;94.27;101273.59;6218708;23;20000;-68
2023/07/19 01:48:25;;;;;;;8.85;6.90;;;;;;;13.11;94.06;101269.13;6217758;23;20019;-68
2023/07/19 01:50:51;;;;;;;10.70;7.50;;;;;;;13.07;94.63;101272.69;6169012;23;20441;-68
2023/07/19 01:53:16;;;;;;;10.52;7.78;;;;;;;13.17;93.92;101276.03;6193541;23;20022;-68
2023/07/19 01:55:41;;;;;;;9.43;7.20;;;;;;;13.15;93.50;101273.44;6167728;23;20020;-68
2023/07/19 01:58:08;;;;;;;9.80;7.43;;;;;;;13.08;93.72;101271.81;6168984;23;20036;-68
2023/07/19 02:00:34;;;;;;;12.43;7.45;;;;;;;13.06;94.10;101270.06;6191004;23;20012;-68
2023/07/19 02:03:00;;;;;;;8.80;7.05;;;;;;;13.07;94.63;101267.41;6217968;23;20030;-68
2023/07/19 02:05:26;;;;;;;10.02;7.30;;;;;;;13.09;94.40;101270.91;6193267;23;20004;-68
2023/07/19 02:07:52;;;;;;;10.55;7.47;;;;;;;13.16;92.47;101271.69;6193591;23;20008;-68
2023/07/19 02:10:19;;;;;;;9.23;5.95;;;;;;;13.20;92.06;101273.38;6167408;23;20015;-68
2023/07/19 02:12:45;;;;;;;9.52;6.43;;;;;;;13.23;91.42;101278.59;6168165;23;20038;-68
2023/07/19 02:15:10;;;;;;;8.05;6.80;;;;;;;13.28;92.39;101270.63;6168413;23;20016;-68
2023/07/19 02:17:36;;;;;;;8.68;6.20;;;;;;;13.21;92.39;101264.59;6168285;23;20223;-68
2023/07/19 02:20:02;;;;;;;8.02;5.97;;;;;;;13.16;91.82;101259.41;6193210;23;20362;-68
2023/07/19 02:22:28;;;;;;;8.90;6.72;;;;;;;13.23;91.48;101269.81;6168781;23;20004;-68
2023/07/19 02:24:53;;;;;;;10.00;6.53;;;;;;;13.29;91.33;101264.47;6167420;23;20070;-68
2023/07/19 02:27:19;;;;;;;10.05;6.88;;;;;;;13.34;91.13;101260.88;6193519;23;20087;-68
2023/07/19 02:29:44;;;;;;;7.97;6.40;;;;;;;13.33;90.74;101260.88;6168443;23;20007;-68
2023/07/19 02:32:10;;;;;;;9.80;6.20;;;;;;;13.14;91.18;101255.91;6167987;23;20004;-68
2023/07/19 02:34:35;;;;;;;6.63;5.93;;;;;;;13.33;90.17;101251.25;6244790;22;20114;-68
2023/07/19 02:37:01;;;;;;;6.50;5.65;;;;;;;13.33;89.76;101248.59;6167827;23;20012;-68
2023/07/19 02:39:27;;;;;;;6.85;5.80;;;;;;;13.27;90.47;101242.56;6192235;23;20016;-68
2023/07/19 02:41:53;;;;;;;8.15;6.75;;;;;;;13.39;90.90;101258.19;6193692;23;20012;-68
2023/07/19 02:44:19;;;;;;;8.15;6.95;;;;;;;13.29;92.42;101252.19;6217966;22;20111;-68
2023/07/19 02:46:44;;;;;;;7.80;6.93;;;;;;;13.33;92.41;101256.50;6192679;23;20008;-68
2023/07/19 02:49:11;;;;;;;7.68;6.40;;;;;;;13.32;91.60;101257.38;6167710;23;20004;-68
2023/07/19 02:51:37;;;;;;;8.05;6.30;;;;;;;13.15;92.29;101259.44;6193411;23;20019;-68
2023/07/19 02:54:03;;;;;;;7.72;5.43;;;;;;;13.11;91.60;101248.06;6217224;22;20704;-68
2023/07/19 02:56:28;;;;;;;8.93;5.25;;;;;;;13.18;90.86;101251.47;6192878;23;20008;-69
2023/07/19 02:58:54;;;;;;;9.50;6.10;;;;;;;13.34;91.08;101268.78;6192452;23;20310;-68
2023/07/19 03:01:19;;;;;;;11.23;6.35;;;;;;;13.31;90.76;101265.31;6168206;23;20011;-68
2023/07/19 03:03:44;;;;;;;9.77;6.25;;;;;;;13.26;91.83;101261.88;6192842;23;20004;-68
2023/07/19 03:06:11;;;;;;;7.40;5.57;;;;;;;13.33;91.75;101269.66;6168305;23;20426;-68
2023/07/19 03:08:37;;;;;;;9.82;6.57;;;;;;;13.26;92.42;101269.75;6218051;23;20012;-68
2023/07/19 03:11:03;;;;;;;7.65;5.63;;;;;;;13.24;92.80;101264.53;6167883;23;20013;-68
2023/07/19 03:13:29;;;;;;;11.23;6.20;;;;;;;13.34;92.02;101260.00;6168161;23;20004;-68
2023/07/19 03:15:54;;;;;;;8.02;5.80;;;;;;;13.29;93.08;101259.22;6168250;23;20081;-68
2023/07/19 03:18:21;;;;;;;10.60;6.32;;;;;;;13.38;93.21;101272.25;6192550;23;20090;-68
2023/07/19 03:20:46;;;;;;;7.35;5.47;;;;;;;13.55;92.40;101265.81;6192374;23;20492;-68
2023/07/19 03:23:11;;;;;;;11.50;6.47;;;;;;;13.48;93.24;101268.56;6168504;23;20016;-68
2023/07/19 03:25:37;;;;;;;9.65;6.03;;;;;;;13.48;93.38;101262.44;6191822;23;20012;-68
2023/07/19 03:28:02;;;;;;;8.85;6.13;;;;;;;13.54;93.21;101277.25;6192822;23;20008;-68
2023/07/19 03:30:28;;;;;;;8.05;6.18;;;;;;;13.54;93.09;101270.22;6168221;23;20020;-68
2023/07/19 03:32:53;;;;;;;12.40;5.88;;;;;;;13.59;92.58;101275.41;6244412;23;20007;-68
2023/07/19 03:35:19;;;;;;;7.78;5.72;;;;;;;13.62;93.26;101270.97;6192126;23;20016;-68
2023/07/19 03:37:45;;;;;;;7.32;5.72;;;;;;;13.72;93.18;101274.31;6167961;23;20012;-68
2023/07/19 03:40:11;;;;;;;8.02;5.68;;;;;;;13.61;93.10;101274.47;6191948;23;20070;-68
2023/07/19 03:42:37;;;;;;;8.57;5.53;;;;;;;13.62;92.89;101276.22;6192721;23;20070;-68
2023/07/19 03:45:04;;;;;;;8.80;5.50;;;;;;;13.78;92.84;101281.22;6192175;23;20016;-68
2023/07/19 03:47:29;;;;;;;8.32;5.03;;;;;;;13.75;92.92;101281.25;6216992;23;20422;-68
2023/07/19 03:49:54;;;;;;;7.03;5.75;;;;;;;13.76;93.29;101286.50;6167849;23;20068;-68
2023/07/19 03:52:20;;;;;;;9.73;5.50;;;;;;;13.77;92.61;101279.50;6192350;23;20020;-68
2023/07/19 03:54:45;;;;;;;8.85;5.28;;;;;;;13.78;92.36;101286.50;6191687;23;20099;-68
2023/07/19 03:57:11;;;;;;;6.70;4.97;;;;;;;13.93;92.20;101280.06;6192011;23;20121;-68
2023/07/19 03:59:36;;;;;;;8.13;5.03;;;;;;;13.90;92.65;101286.25;6167835;23;20019;-68
2023/07/19 04:02:02;;;;;;;7.20;5.45;;;;;;;13.87;93.14;101278.41;6191390;23;20023;-68
2023/07/19 04:04:27;;;;;;;7.45;5.55;;;;;;;13.84;93.59;101270.56;6192227;23;20613;-68
2023/07/19 04:06:53;;;;;;;7.78;5.57;;;;;;;13.83;93.83;101275.00;6192726;23;20319;-68
2023/07/19 04:09:19;;;;;;;8.98;5.63;;;;;;;13.94;93.28;101279.19;6191194;23;20003;-68
2023/07/19 04:11:44;;;;;;;7.15;5.60;;;;;;;13.97;93.26;101274.72;6191997;23;20011;-68
2023/07/19 04:14:10;;;;;;;9.23;5.80;;;;;;;14.01;94.22;101278.16;6166954;22;20031;-68
2023/07/19 04:16:35;;;;;;;7.00;5.93;;;;;;;13.96;94.00;101274.75;6192232;23;20345;-68
2023/07/19 04:19:01;;;;;;;11.00;6.60;;;;;;;13.99;93.84;101282.56;6191091;23;20091;-68
2023/07/19 04:21:26;;;;;;;8.68;6.55;;;;;;;13.97;94.40;101276.50;6166498;23;20012;-68
2023/07/19 04:23:52;;;;;;;8.10;6.40;;;;;;;13.95;94.84;101271.25;6190536;23;20088;-68
2023/07/19 04:26:17;;;;;;;8.70;5.85;;;;;;;13.97;94.54;101269.44;6191598;23;20074;-68
2023/07/19 04:28:42;;;;;;;9.35;6.70;;;;;;;13.98;94.46;101271.19;6191428;23;20019;-68
2023/07/19 04:31:08;;;;;;;9.63;6.90;;;;;;;14.04;94.31;101272.84;6191653;23;20426;-68
2023/07/19 04:33:33;;;;;;;8.73;6.90;;;;;;;14.07;94.34;101272.78;6190984;23;20170;-68
2023/07/19 04:35:59;;;;;;;8.32;6.50;;;;;;;14.14;93.83;101266.47;6190556;23;20337;-68
2023/07/19 04:38:25;;;;;;;9.65;7.18;;;;;;;14.12;93.73;101273.56;6190829;23;20501;-68
2023/07/19 04:40:51;;;;;;;7.50;6.60;;;;;;;14.24;94.23;101280.34;6189861;23;20008;-67
2023/07/19 04:43:16;;;;;;;12.05;7.45;;;;;;;14.23;94.98;101283.03;6167363;23;20016;-67
2023/07/19 04:45:44;;;;;;;10.63;6.80;;;;;;;14.35;94.39;101275.72;6214972;23;20425;-67
2023/07/19 04:48:10;;;;;;;11.55;7.35;;;;;;;14.35;94.90;101283.66;6190026;23;20034;-67
2023/07/19 04:50:36;;;;;;;8.68;7.07;;;;;;;14.47;94.27;101284.28;6191112;23;20004;-67
2023/07/19 04:53:02;;;;;;;9.55;7.30;;;;;;;14.48;94.64;101284.25;6166876;23;20035;-67
2023/07/19 04:55:27;;;;;;;10.25;6.95;;;;;;;14.59;93.57;101283.16;6191177;23;20008;-67
2023/07/19 04:58:02;;;;;;;9.50;8.40;;;;;;;14.58;92.65;101286.69;6215815;23;20043;-67
2023/07/19 05:00:28;;;;;;;9.10;7.22;;;;;;;14.69;92.28;101287.34;6190449;23;20012;-68
2023/07/19 05:02:53;;;;;;;9.18;7.43;;;;;;;14.73;92.50;101291.66;6215466;23;20441;-68
2023/07/19 05:05:19;;;;;;;10.25;8.50;;;;;;;14.75;92.54;101294.28;6190527;23;20012;-67
2023/07/19 05:07:44;;;;;;;9.55;8.25;;;;;;;14.85;91.59;101294.03;6167381;23;20008;-67
2023/07/19 05:10:10;;;;;;;10.25;8.70;;;;;;;14.87;91.28;101292.22;6165967;23;20001;-67
2023/07/19 05:12:35;;;;;;;12.02;8.80;;;;;;;14.94;90.61;101300.88;6166165;23;20011;-67
2023/07/19 05:15:01;;;;;;;10.32;8.85;;;;;;;15.02;90.55;101292.78;6191534;23;20020;-67
2023/07/19 05:17:26;;;;;;;10.60;8.45;;;;;;;15.13;90.26;101290.75;6191487;23;20153;-68
2023/07/19 05:19:52;;;;;;;10.48;8.20;;;;;;;15.22;88.94;101282.63;6192293;23;20426;-68
2023/07/19 05:22:18;;;;;;;10.90;8.35;;;;;;;15.33;88.36;101290.28;6191374;23;20019;-68
2023/07/19 05:24:43;;;;;;;17.40;8.23;;;;;;;15.33;88.09;101286.75;6191523;23;20012;-68
2023/07/19 05:27:09;;;;;;;10.93;8.65;;;;;;;15.45;88.36;101297.03;6215954;23;20008;-67
2023/07/19 05:29:34;;;;;;;9.45;8.00;;;;;;;15.50;87.42;101296.91;6217160;23;20004;-67
2023/07/19 05:32:00;;;;;;;10.60;7.95;;;;;;;15.71;88.23;101291.09;6191868;23;20008;-67
2023/07/19 05:34:25;;;;;;;11.18;8.10;;;;;;;16.60;85.82;101293.06;6190946;23;20091;-67
2023/07/19 05:36:51;;;;;;;12.18;7.93;;;;;;;17.97;80.30;101300.19;6191921;23;20032;-67
2023/07/19 05:39:17;;;;;;;10.38;7.38;;;;;;;18.34;79.11;101294.41;6188938;23;20127;-67
2023/07/19 05:41:42;;;;;;;9.90;7.68;;;;;;;18.64;77.01;101302.16;6215577;23;20004;-67
2023/07/19 05:44:08;;;;;;;10.95;7.30;;;;;;;18.51;75.33;101296.44;6190746;22;20014;-67
2023/07/19 05:46:37;;;;;;;9.88;8.00;;;;;;;18.14;77.14;101291.63;6192497;23;20014;-67
2023/07/19 05:49:03;;;;;;;11.95;7.45;;;;;;;17.91;77.21;101292.47;6191443;23;20508;-67
2023/07/19 05:51:28;;;;;;;12.95;7.97;;;;;;;17.75;77.81;101287.66;6217785;23;20008;-67
2023/07/19 05:53:54;;;;;;;13.10;7.20;;;;;;;17.71;77.49;101293.13;6166523;23;20467;-67
2023/07/19 05:56:20;;;;;;;12.13;7.80;;;;;;;18.02;78.34;101292.09;6192218;23;20392;-67
2023/07/19 05:58:46;;;;;;;11.30;7.57;;;;;;;18.79;74.23;101297.16;6166343;23;20391;-67
2023/07/19 06:01:14;;;;;;;10.68;7.53;;;;;;;19.03;73.94;101293.56;6192330;23;20012;-67
2023/07/19 06:03:40;;;;;;;10.70;7.80;;;;;;;18.95;74.45;101295.69;6193725;23;20469;-67
2023/07/19 06:06:05;;;;;;;10.75;7.90;;;;;;;18.65;74.01;101298.59;6169613;23;20015;-67
2023/07/19 06:08:32;;;;;;;9.38;7.95;;;;;;;18.54;75.29;101295.47;6218548;23;20008;-67
2023/07/19 06:10:58;;;;;;;11.23;7.90;;;;;;;18.35;75.42;101296.16;6168030;23;20729;-67
2023/07/19 06:13:24;;;;;;;9.88;7.40;;;;;;;18.34;75.46;101294.41;6219371;23;20014;-67
2023/07/19 06:15:49;;;;;;;8.77;7.65;;;;;;;18.23;75.83;101293.09;6194002;23;20090;-67
2023/07/19 06:18:15;;;;;;;10.30;7.90;;;;;;;18.15;75.14;101296.88;6218205;23;20000;-67
2023/07/19 06:20:40;;;;;;;12.25;7.53;;;;;;;18.20;76.19;101296.72;6193904;23;20015;-67
2023/07/19 06:23:06;;;;;;;10.70;7.85;;;;;;;18.68;74.51;101285.19;6218975;23;20038;-69
2023/07/19 06:25:31;;;;;;;9.60;7.05;;;;;;;19.35;74.01;101295.84;6193017;23;20011;-67
2023/07/19 06:27:57;;;;;;;12.02;8.10;;;;;;;20.31;71.91;101292.63;6193910;23;20008;-67
2023/07/19 06:30:22;;;;;;;12.05;6.32;;;;;;;20.85;68.80;101289.31;6193511;23;20419;-67
2023/07/19 06:32:48;;;;;;;9.55;6.05;;;;;;;21.06;66.96;101287.38;6193033;23;20023;-67
2023/07/19 06:35:13;;;;;;;8.05;5.80;;;;;;;21.03;65.33;101280.44;6168694;23;20347;-67
2023/07/19 06:37:39;;;;;;;9.43;5.85;;;;;;;21.23;63.89;101276.78;6218405;23;20016;-67
2023/07/19 06:40:06;;;;;;;9.70;5.78;;;;;;;21.36;61.59;101290.34;6217809;23;20066;-67
2023/07/19 06:42:34;;;;;;;11.45;6.40;;;;;;;21.68;61.96;101284.34;6168419;23;20018;-67
2023/07/19 06:45:00;;;;;;;8.25;5.30;;;;;;;22.01;62.58;101289.75;6169642;23;20022;-67
2023/07/19 06:47:29;;;;;;;9.75;5.70;;;;;;;21.63;59.93;101290.78;6193139;23;20091;-67
2023/07/19 06:49:57;;;;;;;9.07;5.25;;;;;;;22.06;63.06;101294.84;6194363;23;20091;-67
2023/07/19 06:52:23;;;;;;;8.35;5.18;;;;;;;22.63;64.08;101294.47;6193282;23;20047;-67
2023/07/19 06:54:48;;;;;;;11.00;5.47;;;;;;;22.85;61.88;101302.13;6217050;23;20395;-67
2023/07/19 06:57:14;;;;;;;7.18;5.18;;;;;;;22.84;58.78;101301.28;6193071;23;20020;-68
2023/07/19 06:59:39;;;;;;;6.75;4.40;;;;;;;22.70;56.49;101300.31;6218419;23;20012;-68
2023/07/19 07:02:05;;;;;;;6.07;4.43;;;;;;;22.76;58.25;101295.50;6167024;23;20011;-68
2023/07/19 07:04:31;;;;;;;9.65;4.97;;;;;;;22.65;55.42;101296.09;6191858;23;20460;-68
2023/07/19 07:06:56;;;;;;;6.63;4.38;;;;;;;22.67;56.74;101288.88;6168645;23;20012;-68
2023/07/19 07:09:22;;;;;;;9.07;5.07;;;;;;;22.83;57.89;101296.88;6217495;23;20003;-68
2023/07/19 07:11:47;;;;;;;7.43;4.15;;;;;;;23.04;56.96;101287.75;6192925;23;20091;-67
2023/07/19 07:14:13;;;;;;;7.50;4.10;;;;;;;23.41;58.48;101291.00;6167808;22;20088;-67
2023/07/19 07:16:39;;;;;;;7.70;4.18;;;;;;;23.56;56.45;101289.22;6193057;23;20107;-67
2023/07/19 07:19:04;;;;;;;9.15;4.40;;;;;;;23.66;56.34;101301.06;6217426;23;20437;-68
2023/07/19 07:21:30;;;;;;;5.95;4.03;;;;;;;23.49;54.09;101292.25;6168381;23;20008;-67
2023/07/19 07:23:55;;;;;;;6.05;3.90;;;;;;;23.24;53.54;101297.31;6191548;23;20367;-68
2023/07/19 07:26:21;;;;;;;10.07;4.00;;;;;;;23.09;54.87;101289.19;6218106;23;20456;-68
2023/07/19 07:28:46;;;;;;;7.40;3.83;;;;;;;22.79;53.50;101298.00;6192717;23;20397;-68
2023/07/19 07:31:12;;;;;;;7.15;3.85;;;;;;;22.59;54.72;101298.25;6192908;23;20015;-68
2023/07/19 07:33:39;;;;;;;5.70;3.40;;;;;;;22.47;56.18;101300.66;6217699;23;20008;-68
2023/07/19 07:36:04;;;;;;;9.73;4.07;;;;;;;22.44;56.17;101290.16;6217288;23;20138;-68
2023/07/19 07:38:30;;;;;;;9.10;4.03;;;;;;;22.41;57.75;101290.31;6192741;23;20008;-68
2023/07/19 07:41:00;;;;;;;8.43;4.38;;;;;;;22.31;58.23;101294.38;6167066;23;20094;-68
2023/07/19 07:43:25;;;;;;;8.10;4.45;;;;;;;22.06;56.05;101294.84;6192739;23;20121;-68
2023/07/19 07:45:54;;;;;;;7.32;3.67;;;;;;;21.93;56.46;101287.47;6192672;23;20016;-68
2023/07/19 07:48:23;;;;;;;14.45;4.07;;;;;;;21.79;56.94;101287.31;6168709;23;20022;-68
2023/07/19 07:50:51;;;;;;;6.45;3.58;;;;;;;21.75;57.50;101275.97;6218376;23;20318;-67
2023/07/19 07:53:19;;;;;;;7.40;3.72;;;;;;;21.74;57.04;101273.38;6217661;23;20055;-68
2023/07/19 07:55:45;;;;;;;6.75;4.00;;;;;;;21.80;57.38;101279.25;6192497;23;20008;-68
2023/07/19 07:58:11;;;;;;;9.00;4.03;;;;;;;21.62;57.79;101285.53;6217488;23;20094;-68
2023/07/19 08:00:37;;;;;;;7.10;3.78;;;;;;;21.55;56.76;101278.78;6192357;23;20045;-68
2023/07/19 08:03:02;;;;;;;7.18;3.30;;;;;;;21.48;57.88;101280.00;6192623;23;20058;-68
2023/07/19 08:05:29;;;;;;;8.73;3.80;;;;;;;21.50;58.17;101276.31;6192832;23;20438;-68
2023/07/19 08:07:54;;;;;;;7.35;4.28;;;;;;;21.44;59.00;101276.63;6192660;23;20091;-68
2023/07/19 08:10:20;;;;;;;9.88;4.30;;;;;;;21.45;59.31;101268.56;6217165;23;20421;-68
2023/07/19 08:12:45;;;;;;;9.15;3.80;;;;;;;21.39;58.23;101268.88;6167364;23;20012;-68
2023/07/19 08:15:11;;;;;;;6.60;3.58;;;;;;;21.52;58.51;101269.16;6192283;23;20090;-68
2023/07/19 08:17:37;;;;;;;7.63;4.00;;;;;;;21.86;61.01;101275.41;6216582;23;20016;-68
2023/07/19 08:20:09;;;;;;;6.93;3.72;;;;;;;22.03;60.21;101271.84;6192616;23;20019;-68
2023/07/19 08:22:35;;;;;;;8.02;4.07;;;;;;;22.22;59.00;101265.53;6217251;23;20457;-68
2023/07/19 08:25:00;;;;;;;9.82;4.50;;;;;;;22.22;58.27;101273.53;6191252;23;20011;-68
2023/07/19 08:27:26;;;;;;;8.18;3.15;;;;;;;22.36;55.54;101260.31;6192682;23;20012;-67
2023/07/19 08:29:52;;;;;;;5.25;2.95;;;;;;;22.38;55.05;101268.25;6167176;23;20028;-68
2023/07/19 08:32:18;;;;;;;9.20;2.80;;;;;;;22.37;53.28;101262.06;6192144;23;20008;-68
2023/07/19 08:34:44;;;;;;;5.20;2.65;;;;;;;22.25;53.91;101268.00;6191925;23;20142;-68
2023/07/19 08:37:10;;;;;;;4.00;2.22;;;;;;;22.37;53.85;101263.84;6191971;23;20031;-68
2023/07/19 08:39:35;;;;;;;7.38;2.33;;;;;;;22.42;53.35;101262.66;6191695;23;20008;-68
2023/07/19 08:42:02;;;;;;;5.35;2.70;;;;;;;22.44;53.61;101263.44;6212006;23;20019;-68
2023/07/19 08:44:28;;;;;;;3.95;2.30;;;;;;;22.49;53.43;101264.03;6191783;23;20005;-68
2023/07/19 08:46:55;;;;;;;5.57;2.33;;;;;;;22.44;51.28;101276.78;6191454;23;20019;-68
2023/07/19 08:49:21;;;;;;;5.72;1.90;;;;;;;22.42;49.91;101262.66;6216427;23;20383;-69
2023/07/19 08:51:47;;;;;;;4.45;1.92;;;;;;;22.34;51.31;101272.91;6215929;23;20004;-69
2023/07/19 08:54:13;;;;;;;5.43;2.50;;;;;;;22.38;53.27;101269.09;6165173;22;20008;-69
2023/07/19 08:56:40;;;;;;;4.18;2.17;;;;;;;22.33;53.41;101276.50;6166363;23;20032;-68
2023/07/19 08:59:06;;;;;;;5.55;2.25;;;;;;;22.20;51.58;101270.94;6216528;23;20016;-69
2023/07/19 09:01:33;;;;;;;6.85;2.70;;;;;;;22.25;53.46;101268.88;6167456;23;20012;-68
2023/07/19 09:03:58;;;;;;;5.10;2.35;;;;;;;22.28;52.96;101270.50;6190798;22;20414;-68
2023/07/19 09:06:25;;;;;;;6.05;2.70;;;;;;;22.30;53.66;101271.31;6166857;23;20103;-68
2023/07/19 09:08:52;;;;;;;4.93;2.28;;;;;;;22.24;54.09;101272.50;6216153;23;20434;-69
2023/07/19 09:11:22;;;;;;;5.05;2.75;;;;;;;22.25;54.42;101276.03;6167499;23;20038;-68
2023/07/19 09:13:55;;;;;;;6.75;3.03;;;;;;;22.17;54.17;101272.91;6192135;23;20092;-68
2023/07/19 09:16:31;;;;;;;7.63;3.28;;;;;;;22.20;55.71;101270.09;6215342;23;20015;-68
2023/07/19 09:18:58;;;;;;;6.22;2.75;;;;;;;22.30;54.24;101273.97;6216526;23;20012;-68
2023/07/19 09:21:36;;;;;;;7.60;3.00;;;;;;;22.42;56.66;101283.16;6217511;23;20003;-68
2023/07/19 09:24:09;;;;;;;6.70;3.47;;;;;;;22.45;56.31;101274.97;6217004;22;20019;-68
2023/07/19 09:26:53;;;;;;;7.13;3.38;;;;;;;22.39;56.98;101276.16;6215265;23;20508;-68
2023/07/19 09:29:19;;;;;;;8.40;3.20;;;;;;;22.20;57.13;101272.75;6216202;23;20004;-68
2023/07/19 09:31:55;;;;;;;6.47;3.53;;;;;;;22.23;56.83;101270.78;6216859;23;20004;-68
2023/07/19 09:34:41;;;;;;;5.60;2.92;;;;;;;22.28;56.06;101270.50;6191625;22;20084;-68
2023/07/19 09:37:07;;;;;;;5.60;3.00;;;;;;;22.27;56.93;101276.81;6216237;23;20426;-68
2023/07/19 09:39:40;;;;;;;8.32;3.70;;;;;;;22.05;56.52;101269.97;6192892;23;20046;-68
2023/07/19 09:42:08;;;;;;;8.15;3.47;;;;;;;22.37;57.86;101266.50;6218824;23;20035;-67
2023/07/19 09:44:36;;;;;;;8.32;3.47;;;;;;;22.44;56.54;101268.78;6194655;23;20008;-68
2023/07/19 09:47:02;;;;;;;5.38;3.08;;;;;;;22.56;57.50;101266.38;6194595;23;20008;-68
2023/07/19 09:49:27;;;;;;;9.32;3.88;;;;;;;22.78;58.64;101266.88;6167549;23;20087;-67
2023/07/19 09:51:55;;;;;;;8.52;3.20;;;;;;;22.67;58.00;101264.84;6168052;23;20018;-67
2023/07/19 09:54:24;;;;;;;12.82;3.58;;;;;;;22.78;57.48;101269.56;6217182;22;20026;-68
2023/07/19 09:56:50;;;;;;;7.50;3.70;;;;;;;22.56;56.65;101267.22;6218834;23;20008;-68
2023/07/19 09:59:22;;;;;;;9.48;3.83;;;;;;;22.59;57.51;101260.88;6168756;23;20058;-68
2023/07/19 10:01:49;;;;;;;8.75;3.13;;;;;;;22.43;56.74;101267.06;6219124;23;20338;-68
2023/07/19 10:04:25;;;;;;;8.45;3.45;;;;;;;22.47;58.77;101267.75;6218265;22;20004;-68
2023/07/19 10:07:06;;;;;;;8.65;3.53;;;;;;;22.53;58.03;101271.88;6194405;23;20016;-68
2023/07/19 10:09:35;;;;;;;7.88;3.47;;;;;;;22.62;58.69;101271.38;6217522;23;20015;-68
2023/07/19 10:12:13;;;;;;;6.95;3.42;;;;;;;22.87;58.69;101261.97;6218720;23;20094;-68
2023/07/19 10:14:38;;;;;;;8.77;3.78;;;;;;;22.98;58.14;101255.06;6218690;23;20004;-68
2023/07/19 10:17:05;;;;;;;10.95;3.85;;;;;;;23.16;58.81;101255.00;6167832;23;20092;-68
2023/07/19 10:19:31;;;;;;;6.70;3.42;;;;;;;23.26;58.71;101253.50;6191722;23;20091;-68
2023/07/19 10:22:04;;;;;;;8.45;3.63;;;;;;;23.05;57.48;101260.91;6190928;23;20039;-68
2023/07/19 10:24:37;;;;;;;6.68;3.10;;;;;;;22.92;56.95;101265.25;6216777;23;20338;-68
2023/07/19 10:27:05;;;;;;;6.78;2.92;;;;;;;22.69;57.30;101271.91;6216887;23;20430;-67
2023/07/19 10:29:45;;;;;;;9.43;3.15;;;;;;;22.75;57.41;101267.06;6217324;23;20000;-68
2023/07/19 10:32:11;;;;;;;9.77;3.08;;;;;;;22.55;56.89;101272.66;6217596;23;20011;-68
2023/07/19 10:34:37;;;;;;;8.05;2.67;;;;;;;22.40;57.02;101267.22;6192576;23;20039;-68
2023/07/19 10:37:04;;;;;;;6.20;2.53;;;;;;;22.46;58.43;101276.72;6191800;23;20119;-67
2023/07/19 10:39:33;;;;;;;6.20;2.15;;;;;;;22.33;56.57;101267.66;6217343;23;20087;-67
2023/07/19 10:41:59;;;;;;;6.57;2.45;;;;;;;22.23;57.39;101264.59;6194044;23;20035;-68
2023/07/19 10:44:26;;;;;;;5.63;2.30;;;;;;;22.30;56.88;101265.97;6217996;23;20453;-68
2023/07/19 10:46:55;;;;;;;4.50;2.28;;;;;;;22.29;57.09;101267.75;6193196;23;20035;-68
2023/07/19 10:49:22;;;;;;;6.13;2.47;;;;;;;22.29;58.16;101265.09;6191959;23;20085;-68
2023/07/19 10:51:58;;;;;;;6.03;2.40;;;;;;;22.39;57.47;101265.50;6190960;23;20357;-68
2023/07/19 10:54:25;;;;;;;7.45;2.28;;;;;;;22.53;58.09;101255.84;6215965;23;20008;-67
2023/07/19 10:56:52;;;;;;;4.18;2.15;;;;;;;22.75;56.57;101251.03;6192810;23;20334;-68
2023/07/19 10:59:18;;;;;;;4.60;1.90;;;;;;;22.93;54.54;101250.91;6192667;23;20169;-68
2023/07/19 11:01:50;;;;;;;6.18;1.65;;;;;;;22.95;52.80;101262.41;6192849;23;20078;-69
2023/07/19 11:04:18;;;;;;;4.45;1.77;;;;;;;22.82;52.12;101265.75;6217823;22;20035;-68
2023/07/19 11:06:59;;;;;;;4.43;1.90;;;;;;;22.71;52.30;101261.97;6193454;23;20016;-68
2023/07/19 11:09:25;;;;;;;5.25;1.90;;;;;;;22.74;53.95;101264.47;6193577;23;20012;-68
2023/07/19 11:11:51;;;;;;;6.40;2.05;;;;;;;22.65;52.98;101258.69;6168459;23;20338;-68
2023/07/19 11:14:27;;;;;;;5.20;2.13;;;;;;;22.81;54.19;101258.72;6218387;22;20086;-68
2023/07/19 11:16:55;;;;;;;5.88;2.28;;;;;;;22.89;53.39;101265.44;6168922;23;20035;-68
2023/07/19 11:19:35;;;;;;;6.63;2.13;;;;;;;23.01;53.88;101256.69;6192912;23;20012;-68
2023/07/19 11:22:01;;;;;;;4.60;1.88;;;;;;;22.85;50.67;101251.38;6193360;23;20013;-68